Time;durP1;ratioP1;P1;durP2;ratioP2;P2;SDS_P1;SDS_P2;PMS_P1;PMS_P2;Temp;Humidity;BMP_temperature;BMP_pressure;BME280_temperature;BME280_humidity;BME280_pressure;Samples;Min_cycle;Max_cycle;Signal;HPM_P1;HPM_P2
2024/01/08 00:00:45;;;;;;;3.13;1.80;;;;;;;18.56;53.17;100819.09;4933609;29;20218;-70
2024/01/08 00:03:10;;;;;;;5.57;2.30;;;;;;;18.52;53.48;100818.19;4912818;29;20222;-74
2024/01/08 00:05:38;;;;;;;4.80;2.03;;;;;;;18.51;53.60;100816.53;4921002;28;20552;-72
2024/01/08 00:08:05;;;;;;;4.43;2.00;;;;;;;18.44;52.79;100819.22;4917673;29;20211;-71
2024/01/08 00:10:30;;;;;;;10.33;2.30;;;;;;;18.47;53.53;100818.44;4921218;28;20505;-74
2024/01/08 00:12:56;;;;;;;10.00;2.20;;;;;;;18.42;53.07;100821.59;4918321;29;20439;-72
2024/01/08 00:15:21;;;;;;;9.07;2.23;;;;;;;18.48;52.44;100823.00;4924885;29;20845;-70
2024/01/08 00:17:47;;;;;;;10.40;2.63;;;;;;;18.46;52.82;100821.69;4919147;29;20258;-71
2024/01/08 00:20:12;;;;;;;7.80;2.80;;;;;;;18.42;52.55;100821.59;4911457;28;20233;-70
2024/01/08 00:22:37;;;;;;;6.23;2.10;;;;;;;18.43;53.43;100819.56;4943767;28;20214;-72
2024/01/08 00:25:03;;;;;;;5.90;2.30;;;;;;;18.34;52.58;100822.59;4927132;29;20211;-70
2024/01/08 00:27:29;;;;;;;15.53;3.33;;;;;;;18.29;53.01;100813.44;4932054;29;20263;-73
2024/01/08 00:29:54;;;;;;;9.70;2.67;;;;;;;18.27;53.59;100822.38;4919935;29;20199;-71
2024/01/08 00:32:20;;;;;;;10.87;2.63;;;;;;;18.29;53.83;100810.56;4931255;28;20738;-73
2024/01/08 00:34:45;;;;;;;10.20;3.13;;;;;;;18.30;53.30;100815.09;4931561;28;20217;-72
2024/01/08 00:37:11;;;;;;;9.27;2.97;;;;;;;18.27;53.27;100810.13;4931192;29;20207;-73
2024/01/08 00:39:36;;;;;;;20.30;2.70;;;;;;;18.27;53.03;100815.84;4932660;29;20218;-69
2024/01/08 00:42:02;;;;;;;17.07;3.40;;;;;;;18.16;52.17;100809.81;4934474;29;20206;-69
2024/01/08 00:44:27;;;;;;;8.93;3.23;;;;;;;18.12;51.48;100808.88;4932076;29;20211;-75
2024/01/08 00:46:53;;;;;;;9.30;2.83;;;;;;;18.17;50.63;100802.09;4918668;28;20230;-75
2024/01/08 00:49:18;;;;;;;13.20;2.53;;;;;;;18.18;50.72;100795.16;4918893;28;20227;-73
2024/01/08 00:51:44;;;;;;;5.90;2.57;;;;;;;18.18;50.61;100804.59;4934136;29;20207;-75
2024/01/08 00:54:10;;;;;;;17.03;3.00;;;;;;;18.19;51.14;100814.81;4932415;29;20959;-75
2024/01/08 00:56:35;;;;;;;8.83;2.70;;;;;;;18.19;50.82;100803.38;4936665;29;20455;-76
2024/01/08 00:59:01;;;;;;;9.97;3.23;;;;;;;18.15;50.43;100808.16;4921196;29;20222;-75
2024/01/08 01:01:26;;;;;;;10.70;2.93;;;;;;;18.17;51.25;100810.66;4951026;28;20878;-75
2024/01/08 01:03:52;;;;;;;13.03;4.03;;;;;;;18.16;51.77;100815.53;4914738;29;20263;-76
2024/01/08 01:06:21;;;;;;;10.57;2.83;;;;;;;18.17;51.15;100802.91;4934159;29;20587;-74
2024/01/08 01:08:47;;;;;;;6.73;2.63;;;;;;;18.18;51.68;100807.44;4930918;29;20218;-75
2024/01/08 01:11:12;;;;;;;12.90;3.60;;;;;;;18.17;51.23;100805.75;4931510;29;20447;-76
2024/01/08 01:13:38;;;;;;;11.40;2.60;;;;;;;18.17;51.16;100808.59;4936352;28;20725;-75
2024/01/08 01:16:03;;;;;;;7.50;2.50;;;;;;;18.19;51.42;100820.53;4931772;28;20222;-75
2024/01/08 01:18:29;;;;;;;6.33;2.50;;;;;;;18.18;51.55;100807.44;4917755;29;20207;-76
2024/01/08 01:20:55;;;;;;;8.30;2.60;;;;;;;18.19;51.47;100820.53;4931471;29;20950;-75
2024/01/08 01:23:20;;;;;;;9.17;2.87;;;;;;;18.17;51.55;100824.94;4950775;28;20927;-74
2024/01/08 01:25:46;;;;;;;17.80;2.40;;;;;;;18.14;51.58;100822.81;4907749;29;20470;-76
2024/01/08 01:28:11;;;;;;;8.77;3.00;;;;;;;18.16;51.81;100826.97;4911523;29;20208;-76
2024/01/08 01:30:37;;;;;;;13.13;3.37;;;;;;;18.16;51.79;100823.28;4950260;28;20203;-75
2024/01/08 01:33:02;;;;;;;7.03;2.30;;;;;;;18.18;51.40;100823.75;4926266;29;20224;-75
2024/01/08 01:35:28;;;;;;;8.50;2.60;;;;;;;18.15;51.43;100819.59;4917686;29;20207;-76
2024/01/08 01:37:53;;;;;;;7.17;2.30;;;;;;;18.15;51.82;100824.47;4913418;28;20210;-73
2024/01/08 01:40:20;;;;;;;13.23;3.07;;;;;;;18.10;52.34;100824.72;4940000;28;20202;-74
2024/01/08 01:42:48;;;;;;;7.77;2.60;;;;;;;18.11;52.11;100820.69;4939392;29;20687;-75
2024/01/08 01:45:14;;;;;;;10.83;2.70;;;;;;;18.09;52.04;100815.34;4935440;28;20467;-75
2024/01/08 01:47:39;;;;;;;7.30;2.23;;;;;;;18.13;51.71;100827.72;4936737;29;20518;-75
2024/01/08 01:50:06;;;;;;;6.67;2.00;;;;;;;18.14;51.44;100829.38;4900770;29;20722;-75
2024/01/08 01:52:31;;;;;;;7.73;2.50;;;;;;;18.12;51.45;100826.03;4917922;28;20210;-75
2024/01/08 01:54:57;;;;;;;15.87;2.93;;;;;;;18.14;51.82;100815.06;4933946;29;20458;-73
2024/01/08 01:57:23;;;;;;;6.97;2.37;;;;;;;18.13;51.39;100821.16;4913413;29;20294;-73
2024/01/08 01:59:49;;;;;;;7.00;2.70;;;;;;;18.12;51.93;100814.59;4947226;28;20466;-73
2024/01/08 02:02:14;;;;;;;5.83;2.37;;;;;;;18.10;51.83;100821.88;4928947;29;20206;-71
2024/01/08 02:04:39;;;;;;;5.40;2.23;;;;;;;18.10;52.27;100811.28;4919161;29;20227;-70
2024/01/08 02:07:05;;;;;;;6.37;2.90;;;;;;;18.13;51.41;100816.28;4918806;29;20286;-70
2024/01/08 02:09:30;;;;;;;7.60;2.37;;;;;;;18.11;51.66;100810.09;4918247;29;20218;-70
2024/01/08 02:11:56;;;;;;;12.97;2.63;;;;;;;18.12;52.11;100819.50;4934810;29;20267;-71
2024/01/08 02:14:21;;;;;;;13.80;2.40;;;;;;;18.07;52.14;100817.72;4947305;28;20211;-70
2024/01/08 02:16:48;;;;;;;8.00;2.20;;;;;;;18.08;51.67;100819.41;4934458;29;20214;-70
2024/01/08 02:19:13;;;;;;;8.40;2.80;;;;;;;18.08;51.99;100824.28;4918140;29;20222;-70
2024/01/08 02:21:39;;;;;;;5.83;2.30;;;;;;;18.06;52.41;100821.78;4915618;29;20960;-70
2024/01/08 02:24:05;;;;;;;6.40;2.53;;;;;;;18.10;51.83;100810.44;4931519;29;20290;-70
2024/01/08 02:26:30;;;;;;;5.83;2.70;;;;;;;18.06;51.85;100812.41;4912922;29;20209;-70
2024/01/08 02:28:56;;;;;;;7.00;2.10;;;;;;;18.03;51.87;100813.13;4919742;29;20454;-70
2024/01/08 02:31:21;;;;;;;7.53;2.60;;;;;;;18.05;52.17;100810.72;4933402;29;20206;-70
2024/01/08 02:33:47;;;;;;;8.27;2.53;;;;;;;18.09;51.97;100808.78;4932546;29;20207;-69
2024/01/08 02:36:12;;;;;;;10.10;2.63;;;;;;;18.05;51.76;100811.53;4934720;29;20255;-70
2024/01/08 02:38:37;;;;;;;8.43;2.37;;;;;;;18.01;52.23;100816.31;4915027;29;20218;-70
2024/01/08 02:41:03;;;;;;;8.57;2.80;;;;;;;18.03;51.97;100813.97;4900361;29;20709;-71
2024/01/08 02:43:29;;;;;;;3.77;1.90;;;;;;;18.02;51.83;100812.25;4931190;29;20759;-70
2024/01/08 02:45:54;;;;;;;8.10;2.30;;;;;;;18.07;51.85;100811.19;4930873;29;20622;-70
2024/01/08 02:48:19;;;;;;;3.93;2.30;;;;;;;18.08;51.85;100810.00;4949544;28;20222;-70
2024/01/08 02:50:45;;;;;;;7.00;3.40;;;;;;;18.02;51.79;100808.59;4954175;28;20243;-70
2024/01/08 02:53:10;;;;;;;4.67;2.10;;;;;;;18.02;51.61;100800.84;4952561;28;20209;-72
2024/01/08 02:55:36;;;;;;;10.60;2.27;;;;;;;17.99;51.84;100803.59;4934712;29;20672;-70
2024/01/08 02:58:04;;;;;;;4.40;1.93;;;;;;;18.00;51.95;100810.97;4950323;28;20741;-70
2024/01/08 03:00:30;;;;;;;5.17;2.47;;;;;;;18.01;51.79;100810.63;4950180;28;20235;-72
2024/01/08 03:02:55;;;;;;;4.17;2.00;;;;;;;18.00;51.86;100814.66;4949851;29;20553;-71
2024/01/08 03:05:21;;;;;;;4.63;2.00;;;;;;;17.99;51.92;100815.88;4929487;29;20691;-71
2024/01/08 03:07:46;;;;;;;5.07;2.10;;;;;;;18.00;51.59;100822.41;4938930;29;20199;-71
2024/01/08 03:10:12;;;;;;;6.97;2.37;;;;;;;17.98;52.06;100819.94;4915430;29;20656;-71
2024/01/08 03:12:37;;;;;;;5.80;2.40;;;;;;;17.98;51.94;100814.22;4899035;29;20698;-72
2024/01/08 03:15:03;;;;;;;7.40;2.17;;;;;;;17.98;51.94;100814.22;4901405;28;20207;-74
2024/01/08 03:17:28;;;;;;;6.10;2.50;;;;;;;17.99;51.64;100815.88;4902044;29;20207;-74
2024/01/08 03:19:54;;;;;;;5.53;2.67;;;;;;;18.01;51.50;100822.03;4929035;29;20266;-74
2024/01/08 03:22:19;;;;;;;8.80;2.80;;;;;;;17.99;51.83;100821.59;4916932;29;20251;-74
2024/01/08 03:24:44;;;;;;;5.00;2.07;;;;;;;17.96;51.81;100821.50;4914920;28;20203;-73
2024/01/08 03:27:10;;;;;;;5.83;2.20;;;;;;;17.96;52.17;100818.63;4947926;28;20210;-74
2024/01/08 03:29:35;;;;;;;9.20;3.33;;;;;;;17.96;51.95;100827.22;4918681;29;20206;-74
2024/01/08 03:32:02;;;;;;;6.27;1.97;;;;;;;17.95;52.04;100819.81;4929419;29;20202;-74
2024/01/08 03:34:27;;;;;;;6.67;2.50;;;;;;;17.92;51.62;100817.69;4924022;28;20222;-74
2024/01/08 03:36:53;;;;;;;5.87;2.33;;;;;;;17.93;51.58;100810.78;4902359;28;20825;-74
2024/01/08 03:39:18;;;;;;;14.33;2.20;;;;;;;17.95;52.44;100825.53;4927334;28;20712;-74
2024/01/08 03:41:44;;;;;;;3.10;1.87;;;;;;;17.93;52.33;100822.22;4913831;28;20219;-74
2024/01/08 03:44:09;;;;;;;5.90;1.70;;;;;;;17.91;52.23;100813.19;4921243;29;20222;-74
2024/01/08 03:46:35;;;;;;;4.60;1.73;;;;;;;17.93;51.99;100819.34;4935235;29;20222;-74
2024/01/08 03:49:01;;;;;;;3.43;2.07;;;;;;;17.90;52.36;100822.97;4919228;28;21034;-73
2024/01/08 03:51:27;;;;;;;6.00;2.33;;;;;;;17.92;52.30;100821.41;4952380;28;20445;-74
2024/01/08 03:53:53;;;;;;;5.33;1.60;;;;;;;17.91;51.99;100821.75;4949678;28;20458;-73
2024/01/08 03:56:18;;;;;;;4.40;2.10;;;;;;;17.92;52.22;100820.56;4934164;29;20210;-74
2024/01/08 03:58:44;;;;;;;4.13;2.17;;;;;;;17.92;52.12;100820.56;4934985;29;20458;-74
2024/01/08 04:01:09;;;;;;;3.43;1.60;;;;;;;17.93;51.79;100825.91;4918374;28;20202;-73
2024/01/08 04:03:35;;;;;;;4.93;2.00;;;;;;;17.89;52.08;100821.28;4934691;29;20211;-74
2024/01/08 04:06:00;;;;;;;3.40;2.03;;;;;;;17.88;52.53;100829.03;4915233;29;20198;-74
2024/01/08 04:08:26;;;;;;;4.10;2.10;;;;;;;17.92;51.89;100826.25;4934148;29;20199;-74
2024/01/08 04:10:51;;;;;;;5.10;2.30;;;;;;;17.90;51.60;100823.78;4935051;29;20210;-74
2024/01/08 04:13:17;;;;;;;3.57;2.00;;;;;;;17.90;51.58;100826.63;4919353;28;20218;-74
2024/01/08 04:15:42;;;;;;;2.80;1.97;;;;;;;17.92;51.73;100826.25;4919076;29;20207;-74
2024/01/08 04:18:08;;;;;;;4.43;2.00;;;;;;;17.91;51.89;100831.13;4935178;29;20213;-74
2024/01/08 04:20:33;;;;;;;2.80;1.63;;;;;;;17.88;52.35;100829.03;4933002;29;20698;-74
2024/01/08 04:22:59;;;;;;;4.10;2.13;;;;;;;17.90;51.89;100840.91;4934490;28;20218;-74
2024/01/08 04:25:24;;;;;;;3.17;1.93;;;;;;;17.92;51.99;100831.97;4935998;29;20211;-71
2024/01/08 04:27:49;;;;;;;5.60;2.10;;;;;;;17.87;52.32;100833.09;4936094;29;20247;-71
2024/01/08 04:30:15;;;;;;;3.50;1.80;;;;;;;17.90;52.04;100840.91;4924292;29;20210;-71
2024/01/08 04:32:40;;;;;;;4.90;1.73;;;;;;;17.91;51.87;100842.56;4934740;29;20203;-72
2024/01/08 04:35:06;;;;;;;3.93;1.83;;;;;;;17.89;51.85;100839.25;4901601;29;20710;-71
2024/01/08 04:37:31;;;;;;;2.80;1.77;;;;;;;17.91;52.21;100828.28;4928782;29;20203;-70
2024/01/08 04:39:57;;;;;;;4.23;1.73;;;;;;;17.89;51.90;100832.69;4919991;28;20202;-71
2024/01/08 04:42:22;;;;;;;3.60;1.90;;;;;;;17.86;51.79;100828.53;4960479;28;20259;-70
2024/01/08 04:44:48;;;;;;;3.40;1.70;;;;;;;17.86;51.75;100834.25;4968721;28;20293;-71
2024/01/08 04:47:14;;;;;;;4.13;1.90;;;;;;;17.89;52.08;100835.56;4936582;29;20585;-70
2024/01/08 04:49:39;;;;;;;3.50;2.17;;;;;;;17.86;52.13;100839.16;4958874;28;20245;-70
2024/01/08 04:52:05;;;;;;;4.93;1.80;;;;;;;17.87;51.81;100833.09;4971989;28;20202;-70
2024/01/08 04:54:30;;;;;;;5.37;1.93;;;;;;;17.88;52.46;100831.88;4938292;28;20199;-72
2024/01/08 04:56:56;;;;;;;3.27;1.83;;;;;;;17.86;51.84;100839.97;4949040;28;20210;-70
2024/01/08 04:59:23;;;;;;;3.13;1.90;;;;;;;17.87;52.36;100827.38;4950201;29;20211;-71
2024/01/08 05:01:49;;;;;;;3.23;1.73;;;;;;;17.89;52.44;100833.53;4950811;29;20195;-71
2024/01/08 05:04:14;;;;;;;4.67;1.63;;;;;;;17.87;52.33;100838.78;4932498;29;20991;-70
2024/01/08 05:06:40;;;;;;;3.77;2.23;;;;;;;17.88;52.53;100831.88;4935127;29;20459;-70
2024/01/08 05:09:05;;;;;;;4.27;1.97;;;;;;;17.87;51.76;100835.94;4903149;29;20215;-70
2024/01/08 05:11:31;;;;;;;3.33;1.53;;;;;;;17.89;52.22;100836.41;4920745;29;20222;-71
2024/01/08 05:13:56;;;;;;;3.83;1.70;;;;;;;17.87;52.02;100843.66;4950932;28;20882;-70
2024/01/08 05:16:22;;;;;;;2.90;1.80;;;;;;;17.85;51.90;100837.50;4901790;29;20759;-71
2024/01/08 05:18:47;;;;;;;2.70;1.60;;;;;;;17.86;51.84;100845.69;4921715;29;20215;-70
2024/01/08 05:21:14;;;;;;;3.43;2.13;;;;;;;17.84;52.06;100841.53;4920531;28;20219;-70
2024/01/08 05:23:39;;;;;;;2.83;1.70;;;;;;;17.83;51.89;100849.28;4932593;29;20306;-71
2024/01/08 05:26:04;;;;;;;3.33;1.50;;;;;;;17.86;51.83;100848.53;4907332;29;20507;-71
2024/01/08 05:28:30;;;;;;;3.23;1.73;;;;;;;17.90;51.78;100855.19;4925901;29;20199;-71
2024/01/08 05:30:55;;;;;;;3.77;2.00;;;;;;;17.87;52.04;100858.78;4917848;29;20204;-70
2024/01/08 05:33:21;;;;;;;3.07;1.73;;;;;;;17.88;51.77;100856.75;4904575;29;20206;-70
2024/01/08 05:35:47;;;;;;;4.23;1.60;;;;;;;17.93;51.86;100857.34;4931252;29;20214;-74
2024/01/08 05:38:12;;;;;;;2.77;1.70;;;;;;;17.87;51.71;100858.78;4934376;29;20467;-73
2024/01/08 05:40:38;;;;;;;3.00;1.50;;;;;;;17.95;51.74;100866.34;4937458;29;20266;-73
2024/01/08 05:43:03;;;;;;;6.10;1.70;;;;;;;17.87;51.55;100858.78;4917669;29;20558;-73
2024/01/08 05:45:29;;;;;;;2.47;1.77;;;;;;;17.83;52.03;100860.69;4951773;28;20211;-73
2024/01/08 05:47:55;;;;;;;3.40;2.10;;;;;;;17.84;52.40;100865.22;4941304;29;20203;-74
2024/01/08 05:50:25;;;;;;;4.00;1.43;;;;;;;17.89;52.01;100859.25;4917157;29;20585;-73
2024/01/08 05:52:54;;;;;;;2.73;1.43;;;;;;;17.91;51.36;100862.56;4911304;29;20552;-73
2024/01/08 05:55:20;;;;;;;2.13;1.43;;;;;;;17.86;51.95;100867.72;4918643;29;20447;-73
2024/01/08 05:57:45;;;;;;;3.23;1.40;;;;;;;17.88;52.12;100865.31;4926963;29;20494;-73
2024/01/08 06:00:11;;;;;;;3.30;2.00;;;;;;;17.84;52.40;100870.94;4897755;29;20825;-73
2024/01/08 06:02:37;;;;;;;2.90;1.30;;;;;;;17.86;51.69;100865.66;4934219;29;20979;-73
2024/01/08 06:05:03;;;;;;;3.00;1.73;;;;;;;17.82;51.94;100861.91;4914483;29;20566;-73
2024/01/08 06:07:28;;;;;;;2.50;1.47;;;;;;;17.83;51.88;100869.28;4935236;28;20207;-73
2024/01/08 06:09:53;;;;;;;2.50;1.50;;;;;;;17.85;51.44;100869.72;4915213;29;20791;-73
2024/01/08 06:12:19;;;;;;;2.50;1.40;;;;;;;17.85;51.80;100869.72;4929737;29;20711;-73
2024/01/08 06:14:44;;;;;;;3.20;1.40;;;;;;;17.85;51.66;100866.06;4898549;29;20672;-73
2024/01/08 06:17:10;;;;;;;2.50;1.67;;;;;;;17.86;51.76;100874.25;4912706;29;20669;-73
2024/01/08 06:19:35;;;;;;;3.90;1.93;;;;;;;17.83;52.31;100874.97;4930933;29;20230;-73
2024/01/08 06:22:01;;;;;;;3.37;1.57;;;;;;;17.80;52.31;100864.28;4915762;29;20620;-73
2024/01/08 06:24:26;;;;;;;3.40;1.63;;;;;;;17.85;51.97;100858.31;4912968;29;20224;-73
2024/01/08 06:26:52;;;;;;;3.80;1.57;;;;;;;17.82;52.17;100859.03;4930406;29;20776;-74
2024/01/08 06:29:17;;;;;;;2.30;1.60;;;;;;;17.88;51.75;100865.31;4917871;29;20215;-73
2024/01/08 06:31:43;;;;;;;3.07;1.43;;;;;;;17.87;52.05;100852.22;4923825;29;20224;-73
2024/01/08 06:34:09;;;;;;;2.57;1.40;;;;;;;17.84;52.32;100865.22;4920947;29;20207;-74
2024/01/08 06:36:34;;;;;;;3.57;1.80;;;;;;;17.86;51.79;100856.28;4933738;29;20270;-73
2024/01/08 06:39:00;;;;;;;3.30;1.40;;;;;;;17.82;52.24;100856.19;4918319;29;20592;-73
2024/01/08 06:41:26;;;;;;;2.20;1.33;;;;;;;17.88;51.71;100865.31;4928387;29;20196;-73
2024/01/08 06:43:51;;;;;;;5.60;1.50;;;;;;;17.92;51.60;100871.97;4895632;29;21015;-73
2024/01/08 06:46:17;;;;;;;3.50;1.50;;;;;;;17.90;51.53;100863.75;4889730;29;20245;-73
2024/01/08 06:48:43;;;;;;;3.50;1.83;;;;;;;17.89;51.92;100870.66;4929705;28;20207;-73
2024/01/08 06:51:08;;;;;;;3.90;1.60;;;;;;;17.91;51.49;100876.84;4926427;28;20470;-74
2024/01/08 06:53:34;;;;;;;4.33;1.60;;;;;;;17.85;52.63;100877.47;4899720;28;20221;-73
2024/01/08 06:55:59;;;;;;;7.10;1.53;;;;;;;17.87;51.84;100880.78;4903340;29;20207;-73
2024/01/08 06:58:28;;;;;;;3.73;1.63;;;;;;;17.82;51.85;100883.91;4914556;28;20211;-73
2024/01/08 07:00:53;;;;;;;7.70;1.83;;;;;;;17.88;52.08;100874.72;4946764;28;20207;-73
2024/01/08 07:03:19;;;;;;;4.03;1.97;;;;;;;17.85;51.83;100875.44;4951265;28;20537;-73
2024/01/08 07:05:44;;;;;;;5.53;1.43;;;;;;;17.93;51.61;100880.19;4945882;28;20218;-73
2024/01/08 07:08:10;;;;;;;3.30;1.87;;;;;;;17.85;52.09;100884.00;4914251;29;20207;-73
2024/01/08 07:10:35;;;;;;;4.97;1.60;;;;;;;17.89;52.15;100884.94;4949195;28;20250;-73
2024/01/08 07:13:01;;;;;;;4.03;1.67;;;;;;;17.85;52.16;100886.88;4926974;29;20198;-73
2024/01/08 07:15:48;;;;;;;4.53;1.90;;;;;;;17.89;51.82;100884.94;4917498;28;20217;-74
2024/01/08 07:18:15;;;;;;;4.83;1.90;;;;;;;17.91;51.80;100882.56;4919824;29;20207;-73
2024/01/08 07:20:41;;;;;;;4.77;1.50;;;;;;;17.89;51.89;100882.09;4910324;29;20467;-73
2024/01/08 07:23:10;;;;;;;6.77;1.80;;;;;;;17.84;52.19;100881.50;4929645;28;20526;-73
2024/01/08 07:25:39;;;;;;;3.57;1.97;;;;;;;17.87;51.58;100893.06;4929326;29;20675;-73
2024/01/08 07:28:05;;;;;;;3.57;1.63;;;;;;;17.89;51.55;100886.97;4933749;29;20500;-72
2024/01/08 07:30:32;;;;;;;3.77;1.67;;;;;;;17.82;51.68;100890.47;4931642;29;20478;-76
2024/01/08 07:32:58;;;;;;;10.40;2.60;;;;;;;17.32;44.84;100897.78;4900730;29;20454;-75
2024/01/08 07:35:23;;;;;;;3.90;2.60;;;;;;;16.49;42.67;100897.38;4921420;29;20462;-76
2024/01/08 07:37:55;;;;;;;4.27;2.43;;;;;;;16.30;37.97;100908.44;4944883;29;20758;-75
2024/01/08 07:40:24;;;;;;;4.20;2.90;;;;;;;16.15;39.89;100903.41;4941647;29;20215;-75
2024/01/08 07:42:54;;;;;;;5.20;3.33;;;;;;;16.71;42.29;100911.19;4936211;28;20541;-74
2024/01/08 07:45:19;;;;;;;4.30;2.60;;;;;;;17.34;37.22;100901.94;4945986;28;20458;-74
2024/01/08 07:47:45;;;;;;;7.90;3.60;;;;;;;17.92;37.22;100907.09;4947343;29;20442;-75
2024/01/08 07:50:10;;;;;;;9.10;3.60;;;;;;;18.29;37.38;100911.44;4911182;29;20250;-74
2024/01/08 07:52:36;;;;;;;5.63;3.10;;;;;;;18.43;37.80;100914.75;4931454;29;20788;-76
2024/01/08 07:55:03;;;;;;;6.30;3.20;;;;;;;18.77;38.50;100907.50;4909030;29;20223;-76
2024/01/08 07:57:29;;;;;;;5.97;2.63;;;;;;;18.93;38.66;100914.06;4938796;29;20302;-75
2024/01/08 07:59:54;;;;;;;5.40;2.87;;;;;;;18.89;38.83;100902.53;4921737;29;21155;-77
2024/01/08 08:02:20;;;;;;;4.97;2.60;;;;;;;19.12;39.43;100905.56;4906606;29;20649;-76
2024/01/08 08:04:45;;;;;;;12.83;2.70;;;;;;;18.98;39.54;100914.63;4935540;29;20210;-75
2024/01/08 08:07:11;;;;;;;5.80;2.67;;;;;;;19.06;40.45;100913.59;4917443;29;20211;-76
2024/01/08 08:09:36;;;;;;;7.60;2.77;;;;;;;18.94;41.66;100907.97;4922606;29;20203;-76
2024/01/08 08:12:01;;;;;;;6.00;3.13;;;;;;;18.92;42.22;100915.28;4939762;29;20520;-76
2024/01/08 08:14:27;;;;;;;8.27;2.40;;;;;;;18.61;43.23;100913.19;4933824;29;20980;-76
2024/01/08 08:16:53;;;;;;;6.70;2.87;;;;;;;18.68;43.04;100913.41;4942195;29;20251;-76
2024/01/08 08:19:18;;;;;;;9.40;2.37;;;;;;;18.57;44.54;100906.53;4952603;28;20211;-76
2024/01/08 08:21:44;;;;;;;6.83;3.00;;;;;;;18.49;45.16;100919.00;4940541;29;20599;-75
2024/01/08 08:24:09;;;;;;;5.27;2.50;;;;;;;18.59;45.62;100914.78;4937778;29;20219;-75
2024/01/08 08:26:35;;;;;;;10.40;3.27;;;;;;;18.45;46.38;100915.22;4939759;29;20211;-74
2024/01/08 08:29:00;;;;;;;9.20;2.80;;;;;;;18.48;46.87;100913.66;4940329;29;20206;-76
2024/01/08 08:31:26;;;;;;;5.87;2.40;;;;;;;18.47;45.59;100909.94;4947914;28;20210;-75
2024/01/08 08:33:51;;;;;;;7.07;2.40;;;;;;;18.41;46.34;100917.13;4947407;28;20254;-76
2024/01/08 08:36:17;;;;;;;6.93;2.80;;;;;;;18.37;47.18;100913.34;4927898;29;20257;-76
2024/01/08 08:38:42;;;;;;;6.63;2.57;;;;;;;18.27;47.53;100925.25;4942657;29;20207;-75
2024/01/08 08:41:08;;;;;;;10.40;3.10;;;;;;;18.29;47.05;100933.47;4941485;29;20211;-75
2024/01/08 08:43:34;;;;;;;13.67;2.67;;;;;;;18.32;46.68;100944.19;4927935;29;20281;-75
2024/01/08 08:45:59;;;;;;;7.80;2.43;;;;;;;18.14;46.57;100942.81;4935703;28;20711;-77
2024/01/08 08:48:25;;;;;;;6.77;2.80;;;;;;;18.08;45.94;100945.13;4923204;29;20204;-77
2024/01/08 08:50:50;;;;;;;10.07;2.57;;;;;;;18.08;46.31;100944.28;4935049;29;20242;-76
2024/01/08 08:53:15;;;;;;;4.33;2.30;;;;;;;18.08;46.93;100941.44;4909127;29;20195;-76
2024/01/08 08:55:41;;;;;;;8.53;2.70;;;;;;;18.07;46.40;100943.44;4918853;29;20208;-77
2024/01/08 08:58:09;;;;;;;12.23;2.83;;;;;;;18.08;46.78;100953.69;4891730;29;20660;-76
2024/01/08 09:00:36;;;;;;;6.30;2.53;;;;;;;18.00;47.48;100954.66;4906402;29;20223;-77
2024/01/08 09:03:03;;;;;;;7.13;2.20;;;;;;;18.01;46.85;100952.66;4928645;29;20475;-80
2024/01/08 09:05:29;;;;;;;8.43;2.80;;;;;;;18.07;47.53;100945.47;4897333;29;20470;-76
2024/01/08 09:07:54;;;;;;;10.43;2.73;;;;;;;18.05;47.90;100945.84;4914842;29;20460;-77
2024/01/08 09:10:19;;;;;;;9.33;3.50;;;;;;;18.00;49.39;100951.81;4898286;29;21285;-77
2024/01/08 09:12:45;;;;;;;13.10;3.00;;;;;;;18.07;51.22;100959.75;4899488;29;20836;-78
2024/01/08 09:15:10;;;;;;;12.30;3.57;;;;;;;18.10;50.94;100961.88;4887283;29;20259;-78
2024/01/08 09:17:36;;;;;;;7.43;3.20;;;;;;;18.15;51.77;100961.63;4898550;29;20262;-77
2024/01/08 09:20:02;;;;;;;11.07;3.17;;;;;;;18.11;52.62;100980.72;4901112;29;20570;-76
2024/01/08 09:22:27;;;;;;;10.43;3.00;;;;;;;18.13;52.21;100972.59;4897372;29;20215;-74
2024/01/08 09:24:52;;;;;;;11.37;3.00;;;;;;;18.08;53.25;100967.13;4910863;29;20212;-75
2024/01/08 09:27:18;;;;;;;18.97;3.83;;;;;;;18.05;52.27;100974.41;4908547;29;20204;-75
2024/01/08 09:29:43;;;;;;;14.30;3.47;;;;;;;17.99;52.12;100970.16;4913544;29;20208;-76
2024/01/08 09:32:09;;;;;;;11.43;3.10;;;;;;;17.97;52.28;100978.22;4890093;29;20222;-76
2024/01/08 09:34:34;;;;;;;11.53;3.97;;;;;;;18.02;51.35;100975.13;4914024;29;20546;-75
2024/01/08 09:37:00;;;;;;;14.50;3.30;;;;;;;17.99;51.72;100970.16;4921619;29;20211;-76
2024/01/08 09:39:25;;;;;;;20.67;4.90;;;;;;;18.01;51.57;100979.19;4910849;29;20211;-76
2024/01/08 09:41:50;;;;;;;21.80;4.30;;;;;;;18.02;51.41;100983.69;4914176;29;20212;-76
2024/01/08 09:44:16;;;;;;;10.13;3.80;;;;;;;18.05;50.68;100985.00;4912668;29;20212;-75
2024/01/08 09:46:43;;;;;;;15.10;4.23;;;;;;;18.03;51.08;100985.38;4914092;29;20623;-76
2024/01/08 09:49:09;;;;;;;28.30;3.93;;;;;;;18.01;51.19;100986.94;4926194;29;20701;-76
2024/01/08 09:51:34;;;;;;;8.97;3.30;;;;;;;18.03;51.59;100982.53;4911157;29;20445;-75
2024/01/08 09:54:00;;;;;;;13.70;4.20;;;;;;;18.00;51.14;100982.38;4896506;29;20200;-76
2024/01/08 09:56:26;;;;;;;15.40;3.77;;;;;;;18.02;51.26;100986.53;4923341;29;20243;-76
2024/01/08 09:58:52;;;;;;;9.87;3.57;;;;;;;18.03;50.29;100984.53;4936657;28;20700;-76
2024/01/08 10:01:17;;;;;;;14.73;4.80;;;;;;;17.97;50.76;100983.94;4910800;29;20468;-76
2024/01/08 10:03:42;;;;;;;15.00;4.03;;;;;;;17.99;51.12;100984.44;4910896;29;20287;-76
2024/01/08 10:06:09;;;;;;;24.27;3.90;;;;;;;17.95;50.83;100980.63;4910309;29;20209;-76
2024/01/08 10:08:35;;;;;;;17.23;3.50;;;;;;;17.95;50.59;100980.63;4896317;29;20220;-76
2024/01/08 10:11:00;;;;;;;10.80;4.17;;;;;;;17.97;51.28;100977.41;4919196;29;20529;-74
2024/01/08 10:13:25;;;;;;;20.90;4.40;;;;;;;18.00;50.92;100982.38;4914130;29;20307;-76
2024/01/08 10:15:52;;;;;;;15.70;5.13;;;;;;;17.99;51.15;100975.84;4912225;29;20211;-71
2024/01/08 10:18:17;;;;;;;17.33;4.73;;;;;;;17.95;50.96;100972.06;4885775;29;20226;-72
2024/01/08 10:20:44;;;;;;;14.60;4.03;;;;;;;17.96;51.01;100970.84;4915040;29;20463;-72
2024/01/08 10:23:10;;;;;;;21.23;4.57;;;;;;;17.95;50.70;100968.34;4934724;28;20247;-72
2024/01/08 10:25:36;;;;;;;13.87;3.90;;;;;;;17.95;50.94;100969.19;4939102;28;20455;-72
2024/01/08 10:28:02;;;;;;;16.37;3.97;;;;;;;17.95;50.79;100968.34;4914365;29;20297;-72
2024/01/08 10:30:27;;;;;;;22.60;4.10;;;;;;;17.93;50.80;100968.75;4932982;29;20870;-72
2024/01/08 10:32:57;;;;;;;14.27;4.97;;;;;;;17.97;50.72;100960.28;4908855;29;20531;-72
2024/01/08 10:35:23;;;;;;;16.43;4.17;;;;;;;17.96;50.63;100968.00;4891530;29;20204;-72
2024/01/08 10:37:49;;;;;;;17.30;4.70;;;;;;;17.98;50.84;100962.78;4926778;29;20838;-72
2024/01/08 10:40:15;;;;;;;17.37;4.20;;;;;;;17.96;50.77;100959.44;4924290;29;20230;-72
2024/01/08 10:42:42;;;;;;;18.07;4.37;;;;;;;17.97;50.70;100963.94;4899360;29;20519;-72
2024/01/08 10:45:08;;;;;;;20.00;4.40;;;;;;;17.98;50.12;100974.19;4915806;29;20211;-73
2024/01/08 10:47:35;;;;;;;14.83;4.33;;;;;;;17.93;50.41;100965.88;4914817;29;20455;-72
2024/01/08 10:50:00;;;;;;;26.30;5.40;;;;;;;17.97;50.53;100969.66;4921784;29;20238;-72
2024/01/08 10:52:27;;;;;;;13.70;4.40;;;;;;;17.92;51.13;100967.09;4903172;29;20443;-72
2024/01/08 10:55:00;;;;;;;21.90;4.03;;;;;;;17.92;51.10;100966.25;4906690;29;20291;-72
2024/01/08 10:57:50;;;;;;;14.20;4.30;;;;;;;17.93;50.59;100963.03;4928300;29;20450;-72
2024/01/08 11:00:16;;;;;;;14.70;4.80;;;;;;;17.94;50.43;100970.41;4913295;29;20455;-72
2024/01/08 11:02:41;;;;;;;12.90;3.90;;;;;;;17.98;50.69;100951.34;4916196;29;20459;-72
2024/01/08 11:05:08;;;;;;;15.00;4.30;;;;;;;17.92;50.65;100961.38;4914819;29;20200;-72
2024/01/08 11:07:40;;;;;;;13.40;4.50;;;;;;;17.98;50.91;100957.06;4914375;29;20207;-73
2024/01/08 11:10:07;;;;;;;16.20;4.50;;;;;;;17.93;50.54;100957.31;4910050;29;21090;-72
2024/01/08 11:12:39;;;;;;;15.73;4.50;;;;;;;17.95;50.81;100948.34;4880497;29;20456;-71
2024/01/08 11:15:05;;;;;;;13.63;4.50;;;;;;;17.98;49.81;100947.66;4891086;29;21012;-72